createdAt,value
2023-12-12T00:04:11.050Z,0.70
2023-12-12T00:14:35.659Z,0.50
2023-12-12T00:24:59.362Z,0.40
2023-12-12T00:35:23.970Z,0.20
2023-12-12T00:45:48.561Z,0.60
2023-12-12T00:56:12.575Z,0.60
2023-12-12T01:06:37.454Z,0.50
2023-12-12T01:17:02.262Z,0.60
2023-12-12T01:27:25.979Z,0.60
2023-12-12T01:37:51.226Z,0.40
2023-12-12T01:48:16.346Z,0.30
2023-12-12T01:58:42.113Z,0.70
2023-12-12T02:09:06.691Z,1.00
2023-12-12T02:19:31.241Z,0.40
2023-12-12T02:29:55.881Z,0.50
2023-12-12T02:40:21.010Z,0.90
2023-12-12T02:50:45.597Z,0.70
2023-12-12T03:01:13.411Z,0.60
2023-12-12T03:11:38.071Z,0.60
2023-12-12T03:22:02.224Z,0.50
2023-12-12T03:32:25.811Z,1.60
2023-12-12T03:42:53.749Z,0.70
2023-12-12T03:53:18.434Z,0.90
2023-12-12T04:03:42.503Z,1.30
2023-12-12T04:14:06.917Z,1.60
2023-12-12T04:24:31.295Z,1.00
2023-12-12T04:34:55.387Z,0.80
2023-12-12T04:45:20.295Z,1.00
2023-12-12T04:55:44.550Z,1.20
2023-12-12T05:06:11.799Z,1.20
2023-12-12T05:16:36.541Z,1.10
2023-12-12T05:37:24.424Z,1.10
2023-12-12T05:47:50.420Z,1.20
2023-12-12T05:58:14.830Z,1.10
2023-12-12T06:08:38.807Z,1.70
2023-12-12T06:19:07.060Z,1.60
2023-12-12T06:29:31.473Z,2.50
2023-12-12T06:39:56.009Z,3.10
2023-12-12T06:50:20.817Z,1.90
2023-12-12T07:00:45.790Z,2.10
2023-12-12T07:11:09.938Z,2.50
2023-12-12T07:21:47.029Z,2.50
2023-12-12T07:32:12.776Z,2.10
2023-12-12T07:42:37.055Z,2.40
2023-12-12T07:53:02.449Z,1.50
2023-12-12T08:03:27.565Z,2.00
2023-12-12T08:13:52.600Z,2.20
2023-12-12T08:24:17.586Z,2.60
2023-12-12T08:45:07.553Z,2.30
2023-12-12T08:55:33.128Z,3.20
2023-12-12T09:05:58.392Z,3.10
2023-12-12T09:16:22.670Z,4.60
2023-12-12T09:26:48.056Z,3.90
2023-12-12T09:37:12.486Z,2.30
2023-12-12T09:47:37.665Z,1.50
2023-12-12T09:58:02.447Z,1.80
2023-12-12T10:08:30.082Z,1.50
2023-12-12T10:18:56.369Z,1.40
2023-12-12T10:29:24.398Z,1.80
2023-12-12T10:39:50.489Z,2.20
2023-12-12T10:50:16.636Z,2.30
2023-12-12T11:00:42.504Z,3.60
2023-12-12T11:11:11.506Z,3.20
2023-12-12T11:21:51.392Z,2.10
2023-12-12T11:32:20.000Z,3.20
2023-12-12T11:42:46.510Z,2.30
2023-12-12T11:53:10.572Z,2.20
2023-12-12T12:03:35.144Z,1.70
2023-12-12T12:24:23.560Z,3.40
2023-12-12T12:34:48.417Z,2.80
2023-12-12T12:45:13.012Z,3.30
2023-12-12T12:55:42.392Z,4.70
2023-12-12T13:06:10.314Z,5.10
2023-12-12T13:16:35.414Z,5.70
2023-12-12T13:26:59.414Z,5.50
2023-12-12T13:37:23.915Z,5.50
2023-12-12T13:47:48.412Z,5.00
2023-12-12T13:58:12.859Z,4.90
2023-12-12T14:08:37.504Z,5.10
2023-12-12T14:19:02.493Z,4.90
2023-12-12T14:29:26.648Z,5.80
2023-12-12T14:39:51.334Z,5.90
2023-12-12T14:50:15.504Z,4.60
2023-12-12T15:00:39.396Z,7.10
2023-12-12T15:11:03.957Z,6.20
2023-12-12T15:21:28.987Z,5.80
2023-12-12T15:31:53.615Z,5.50
2023-12-12T15:42:17.839Z,5.30
2023-12-12T15:52:42.546Z,4.80
2023-12-12T16:03:10.890Z,6.70
2023-12-12T16:13:37.683Z,7.70
2023-12-12T16:24:03.907Z,21.70
2023-12-12T16:34:28.140Z,7.60
2023-12-12T16:44:53.477Z,5.60
2023-12-12T16:55:18.014Z,11.10
2023-12-12T17:05:42.360Z,23.00
2023-12-12T17:16:07.576Z,9.40
2023-12-12T17:26:32.430Z,8.40
2023-12-12T17:36:56.911Z,7.70
2023-12-12T17:47:21.606Z,8.40
2023-12-12T18:08:11.944Z,7.20
2023-12-12T18:18:37.648Z,9.30
2023-12-12T18:29:05.072Z,8.40
2023-12-12T18:39:29.131Z,7.60
2023-12-12T18:49:54.221Z,8.60
2023-12-12T19:00:18.993Z,6.00
2023-12-12T19:10:42.924Z,5.40
2023-12-12T19:21:07.227Z,5.20
2023-12-12T19:31:31.636Z,4.60
2023-12-12T19:41:55.486Z,4.90
2023-12-12T19:52:20.466Z,5.30
2023-12-12T20:02:44.983Z,5.70
2023-12-12T20:13:10.404Z,6.40
2023-12-12T20:23:34.799Z,5.80
2023-12-12T20:33:58.920Z,7.50
2023-12-12T20:44:23.262Z,9.40
2023-12-12T20:54:48.350Z,8.50
2023-12-12T21:05:12.873Z,9.30
2023-12-12T21:15:37.372Z,8.60
2023-12-12T21:26:01.933Z,9.60
2023-12-12T21:36:26.287Z,10.90
2023-12-12T21:46:51.887Z,19.30
2023-12-12T21:57:22.044Z,15.50
2023-12-12T22:07:53.583Z,15.70
2023-12-12T22:18:20.084Z,18.60
2023-12-12T22:28:44.749Z,17.90
2023-12-12T22:39:15.902Z,18.30
2023-12-12T22:49:43.103Z,21.80
2023-12-12T23:00:25.847Z,19.70
2023-12-12T23:10:50.763Z,18.50
2023-12-12T23:21:14.747Z,20.60
2023-12-12T23:31:42.000Z,17.40
2023-12-12T23:42:06.834Z,16.20
2023-12-12T23:52:31.040Z,12.90
